createdAt,value
2023-03-16T00:02:19.329Z,19.90
2023-03-16T00:04:47.667Z,17.58
2023-03-16T00:07:15.896Z,17.25
2023-03-16T00:09:43.148Z,20.38
2023-03-16T00:12:15.988Z,23.55
2023-03-16T00:14:48.646Z,20.37
2023-03-16T00:17:20.733Z,20.15
2023-03-16T00:19:51.846Z,22.13
2023-03-16T00:22:19.662Z,24.05
2023-03-16T00:24:46.682Z,19.45
2023-03-16T00:27:15.360Z,24.33
2023-03-16T00:29:48.377Z,24.00
2023-03-16T00:32:19.675Z,16.27
2023-03-16T00:34:48.772Z,23.77
2023-03-16T00:37:17.774Z,21.00
2023-03-16T00:39:47.078Z,20.48
2023-03-16T00:42:16.157Z,30.30
2023-03-16T00:44:43.577Z,21.63
2023-03-16T00:47:14.941Z,24.42
2023-03-16T00:49:43.854Z,21.52
2023-03-16T00:52:15.043Z,27.70
2023-03-16T00:54:47.895Z,30.77
2023-03-16T00:57:19.059Z,27.20
2023-03-16T00:59:52.917Z,26.13
2023-03-16T01:02:37.298Z,24.05
2023-03-16T01:05:29.634Z,27.40
2023-03-16T01:08:31.274Z,27.35
2023-03-16T01:11:18.743Z,18.67
2023-03-16T01:14:19.664Z,35.08
2023-03-16T01:17:19.257Z,29.10
2023-03-16T01:20:02.200Z,23.75
2023-03-16T01:22:30.878Z,16.95
2023-03-16T01:25:06.710Z,21.23
2023-03-16T01:27:39.992Z,24.70
2023-03-16T01:30:16.722Z,35.03
2023-03-16T01:32:56.666Z,26.75
2023-03-16T01:35:25.007Z,34.08
2023-03-16T01:38:13.217Z,33.17
2023-03-16T01:40:56.300Z,26.83
2023-03-16T01:43:35.258Z,20.37
2023-03-16T01:46:08.888Z,30.42
2023-03-16T01:48:53.229Z,27.58
2023-03-16T01:51:53.891Z,28.70
2023-03-16T01:54:37.871Z,23.60
2023-03-16T01:57:17.124Z,23.77
2023-03-16T02:00:09.903Z,27.48
2023-03-16T02:02:56.305Z,21.25
2023-03-16T02:05:38.716Z,29.23
2023-03-16T02:08:08.493Z,26.92
2023-03-16T02:10:37.674Z,55.47
2023-03-16T02:13:05.137Z,28.67
2023-03-16T02:15:32.643Z,21.83
2023-03-16T02:18:00.957Z,27.63
2023-03-16T02:20:52.131Z,19.08
2023-03-16T02:23:21.388Z,27.35
2023-03-16T02:26:34.348Z,24.98
2023-03-16T02:29:23.409Z,24.27
2023-03-16T02:31:52.889Z,17.98
2023-03-16T02:34:20.298Z,22.45
2023-03-16T02:36:49.989Z,19.25
2023-03-16T02:39:20.901Z,22.25
2023-03-16T02:41:48.437Z,21.27
2023-03-16T02:44:29.345Z,27.20
2023-03-16T02:47:03.653Z,21.10
2023-03-16T02:49:45.548Z,21.38
2023-03-16T02:52:12.962Z,12.93
2023-03-16T02:54:40.128Z,18.48
2023-03-16T02:57:09.219Z,22.30
2023-03-16T02:59:36.675Z,14.30
2023-03-16T03:02:04.057Z,21.45
2023-03-16T03:04:33.301Z,21.27
2023-03-16T03:07:04.930Z,17.60
2023-03-16T03:09:43.188Z,18.65
2023-03-16T03:12:11.100Z,17.67
2023-03-16T03:14:38.902Z,16.38
2023-03-16T03:17:10.268Z,17.05
2023-03-16T03:19:37.313Z,18.27
2023-03-16T03:22:06.597Z,20.20
2023-03-16T03:24:35.017Z,20.75
2023-03-16T03:27:06.091Z,23.40
2023-03-16T03:29:36.292Z,17.23
2023-03-16T03:32:05.309Z,20.83
2023-03-16T03:34:33.100Z,17.25
2023-03-16T03:37:01.346Z,16.73
2023-03-16T03:39:29.039Z,15.95
2023-03-16T03:41:57.108Z,21.30
2023-03-16T03:44:25.058Z,17.70
2023-03-16T03:46:53.054Z,21.25
2023-03-16T03:49:20.909Z,27.08
2023-03-16T03:51:52.954Z,16.40
2023-03-16T03:54:25.289Z,31.90
2023-03-16T03:57:12.680Z,19.50
2023-03-16T03:59:43.918Z,23.40
2023-03-16T04:02:14.772Z,29.40
2023-03-16T04:04:50.137Z,31.77
2023-03-16T04:07:20.354Z,23.25
2023-03-16T04:09:49.388Z,24.55
2023-03-16T04:12:24.594Z,25.25
2023-03-16T04:14:52.682Z,25.48
2023-03-16T04:17:21.210Z,30.27
2023-03-16T04:19:50.678Z,21.75
2023-03-16T04:22:18.545Z,26.95
2023-03-16T04:24:47.004Z,33.97
2023-03-16T04:27:14.822Z,28.35
2023-03-16T04:29:42.177Z,30.25
2023-03-16T04:32:09.511Z,26.02
2023-03-16T04:34:38.631Z,32.15
2023-03-16T04:37:06.974Z,35.03
2023-03-16T04:39:36.857Z,29.38
2023-03-16T04:42:04.006Z,32.22
2023-03-16T04:44:34.432Z,23.50
2023-03-16T04:47:01.789Z,31.95
2023-03-16T04:49:36.587Z,36.08
2023-03-16T04:52:04.847Z,31.80
2023-03-16T04:54:33.396Z,35.05
2023-03-16T04:57:01.343Z,27.92
2023-03-16T04:59:34.838Z,32.95
2023-03-16T05:02:10.027Z,39.25
2023-03-16T05:04:37.731Z,31.02
2023-03-16T05:07:06.975Z,27.17
2023-03-16T05:09:39.187Z,22.70
2023-03-16T05:12:07.350Z,30.35
2023-03-16T05:14:36.584Z,28.75
2023-03-16T05:17:19.893Z,35.92
2023-03-16T05:19:47.415Z,31.88
2023-03-16T05:22:16.936Z,35.10
2023-03-16T05:25:07.402Z,32.15
2023-03-16T05:27:35.434Z,34.15
2023-03-16T05:30:05.118Z,38.47
2023-03-16T05:32:33.716Z,38.17
2023-03-16T05:35:00.868Z,34.50
2023-03-16T05:37:28.093Z,31.75
2023-03-16T05:39:55.069Z,32.60
2023-03-16T05:42:22.253Z,42.95
2023-03-16T05:44:55.127Z,45.55
2023-03-16T05:47:37.479Z,31.10
2023-03-16T05:50:11.378Z,39.47
2023-03-16T05:52:42.348Z,28.70
2023-03-16T05:55:17.575Z,35.05
2023-03-16T05:57:49.459Z,38.83
2023-03-16T06:00:19.829Z,48.85
2023-03-16T06:02:54.914Z,29.05
2023-03-16T06:05:26.425Z,50.00
2023-03-16T06:07:53.714Z,43.42
2023-03-16T06:10:21.346Z,39.63
2023-03-16T06:12:48.561Z,39.20
2023-03-16T06:15:15.681Z,48.63
2023-03-16T06:17:42.858Z,36.65
2023-03-16T06:20:13.338Z,40.47
2023-03-16T06:22:43.165Z,33.50
2023-03-16T06:25:12.797Z,52.55
2023-03-16T06:27:41.647Z,30.10
2023-03-16T06:30:15.093Z,33.58
2023-03-16T06:32:43.129Z,33.38
2023-03-16T06:35:11.594Z,35.13
2023-03-16T06:37:43.368Z,31.30
2023-03-16T06:40:39.712Z,36.97
2023-03-16T06:43:07.192Z,32.85
2023-03-16T06:45:34.241Z,33.67
2023-03-16T06:48:01.578Z,40.72
2023-03-16T06:50:29.464Z,28.13
2023-03-16T06:52:56.822Z,35.72
2023-03-16T06:55:23.985Z,38.30
2023-03-16T06:57:51.012Z,39.28
2023-03-16T07:00:19.364Z,38.80
2023-03-16T07:02:46.447Z,31.45
2023-03-16T07:05:18.135Z,33.60
2023-03-16T07:07:47.170Z,35.53
2023-03-16T07:10:17.864Z,25.75
2023-03-16T07:12:46.083Z,29.05
2023-03-16T07:15:14.014Z,29.40
2023-03-16T07:17:42.762Z,29.77
2023-03-16T07:20:11.668Z,37.35
2023-03-16T07:22:40.435Z,32.22
2023-03-16T07:25:11.643Z,34.05
2023-03-16T07:27:45.700Z,27.85
2023-03-16T07:30:16.418Z,29.55
2023-03-16T07:32:46.387Z,38.35
2023-03-16T07:35:14.659Z,26.40
2023-03-16T07:37:42.228Z,26.27
2023-03-16T07:40:10.881Z,31.88
2023-03-16T07:42:38.521Z,30.52
2023-03-16T07:45:10.570Z,28.15
2023-03-16T07:47:38.208Z,32.70
2023-03-16T07:50:27.850Z,29.35
2023-03-16T07:52:55.942Z,31.88
2023-03-16T07:55:22.967Z,25.98
2023-03-16T07:57:51.965Z,31.35
2023-03-16T08:00:26.561Z,30.00
2023-03-16T08:02:55.374Z,32.60
2023-03-16T08:05:22.648Z,25.70
2023-03-16T08:07:57.502Z,34.83
2023-03-16T08:10:28.418Z,44.72
2023-03-16T08:13:05.059Z,42.92
2023-03-16T08:15:34.123Z,41.55
2023-03-16T08:18:08.820Z,52.88
2023-03-16T08:20:36.254Z,52.53
2023-03-16T08:23:05.763Z,43.08
2023-03-16T08:25:38.981Z,58.38
2023-03-16T08:28:16.168Z,58.25
2023-03-16T08:30:48.950Z,36.05
2023-03-16T08:33:38.820Z,43.60
2023-03-16T08:36:08.776Z,32.92
2023-03-16T08:38:36.226Z,33.53
2023-03-16T08:41:08.577Z,38.80
2023-03-16T08:43:37.648Z,33.47
2023-03-16T08:46:05.734Z,34.83
2023-03-16T08:48:46.724Z,30.10
2023-03-16T08:51:15.011Z,28.25
2023-03-16T08:53:44.164Z,38.88
2023-03-16T08:56:13.750Z,40.80
2023-03-16T08:58:45.717Z,40.55
2023-03-16T09:01:15.644Z,34.42
2023-03-16T09:03:45.884Z,41.65
2023-03-16T09:06:15.657Z,40.83
2023-03-16T09:08:45.574Z,41.95
2023-03-16T09:11:14.984Z,39.60
2023-03-16T09:13:45.586Z,31.00
2023-03-16T09:16:15.979Z,43.13
2023-03-16T09:18:43.694Z,44.45
2023-03-16T09:21:14.301Z,32.97
2023-03-16T09:23:43.260Z,32.15
2023-03-16T09:26:12.988Z,24.85
2023-03-16T09:28:42.541Z,24.38
2023-03-16T09:31:23.234Z,28.88
2023-03-16T09:33:50.501Z,24.30
2023-03-16T09:36:17.826Z,28.75
2023-03-16T09:38:45.159Z,27.80
2023-03-16T09:41:36.987Z,32.08
2023-03-16T09:44:18.145Z,30.08
2023-03-16T09:46:49.169Z,26.55
2023-03-16T09:49:21.217Z,37.10
2023-03-16T09:52:00.548Z,28.50
2023-03-16T09:54:48.484Z,27.00
2023-03-16T09:57:26.544Z,20.30
2023-03-16T09:59:55.172Z,16.63
2023-03-16T10:02:47.371Z,21.33
2023-03-16T10:05:17.378Z,18.98
2023-03-16T10:08:06.006Z,22.08
2023-03-16T10:11:01.155Z,21.98
2023-03-16T10:13:28.243Z,17.23
2023-03-16T10:15:59.830Z,19.40
2023-03-16T10:18:33.342Z,19.95
2023-03-16T10:23:27.701Z,22.67
2023-03-16T10:25:56.160Z,34.80
2023-03-16T10:28:28.747Z,21.58
2023-03-16T10:31:00.134Z,18.70
2023-03-16T10:33:30.424Z,17.30
2023-03-16T10:36:05.846Z,26.90
2023-03-16T10:38:50.700Z,24.23
2023-03-16T10:41:23.127Z,28.45
2023-03-16T10:44:07.750Z,26.17
2023-03-16T10:46:40.949Z,24.23
2023-03-16T10:49:43.711Z,25.52
2023-03-16T10:52:23.705Z,21.45
2023-03-16T10:55:01.970Z,20.42
2023-03-16T10:57:42.928Z,18.60
2023-03-16T11:00:24.980Z,28.35
2023-03-16T11:02:57.265Z,12.40
2023-03-16T11:05:33.940Z,17.33
2023-03-16T11:08:10.535Z,17.63
2023-03-16T11:10:49.394Z,18.15
2023-03-16T11:13:21.963Z,26.40
2023-03-16T11:16:07.831Z,19.92
2023-03-16T11:18:59.654Z,19.15
2023-03-16T11:22:06.670Z,16.50
2023-03-16T11:25:11.055Z,12.15
2023-03-16T11:28:05.501Z,16.63
2023-03-16T11:30:46.390Z,14.23
2023-03-16T11:33:15.557Z,10.88
2023-03-16T11:35:56.429Z,10.98
2023-03-16T11:38:37.851Z,13.20
2023-03-16T11:41:50.760Z,16.63
2023-03-16T11:44:20.494Z,18.60
2023-03-16T11:47:08.470Z,10.75
2023-03-16T11:49:48.204Z,8.73
2023-03-16T11:52:33.531Z,16.45
2023-03-16T11:55:29.009Z,12.70
2023-03-16T11:58:17.473Z,9.15
2023-03-16T12:01:16.631Z,11.70
2023-03-16T12:04:21.566Z,12.32
2023-03-16T12:07:13.672Z,14.55
2023-03-16T12:09:44.737Z,11.32
2023-03-16T12:12:47.925Z,8.65
2023-03-16T12:16:07.880Z,13.25
2023-03-16T12:18:47.999Z,15.82
2023-03-16T12:21:23.167Z,11.10
2023-03-16T12:23:50.250Z,15.48
2023-03-16T12:26:19.795Z,13.20
2023-03-16T12:28:48.686Z,13.85
2023-03-16T12:31:47.048Z,10.05
2023-03-16T12:34:20.352Z,14.73
2023-03-16T12:37:15.107Z,14.27
2023-03-16T12:40:09.388Z,22.38
2023-03-16T12:42:49.088Z,19.77
2023-03-16T12:45:51.995Z,17.77
2023-03-16T12:48:30.133Z,17.48
2023-03-16T12:51:00.546Z,15.55
2023-03-16T12:53:47.119Z,13.05
2023-03-16T12:56:18.090Z,18.17
2023-03-16T12:58:50.831Z,14.43
2023-03-16T13:01:21.964Z,9.50
2023-03-16T13:03:51.211Z,15.48
2023-03-16T13:06:24.519Z,12.98
2023-03-16T13:09:00.031Z,8.73
2023-03-16T13:11:28.833Z,9.38
2023-03-16T13:14:01.930Z,10.05
2023-03-16T13:16:32.212Z,9.77
2023-03-16T13:19:01.023Z,16.08
2023-03-16T13:21:40.381Z,11.75
2023-03-16T13:24:14.012Z,10.63
2023-03-16T13:26:53.927Z,15.15
2023-03-16T13:29:33.489Z,17.83
2023-03-16T13:32:06.587Z,14.93
2023-03-16T13:34:45.079Z,18.83
2023-03-16T13:37:16.870Z,21.30
2023-03-16T13:39:55.238Z,7.15
2023-03-16T13:42:24.653Z,19.77
2023-03-16T13:44:57.834Z,13.38
2023-03-16T13:50:00.891Z,13.45
2023-03-16T13:52:36.999Z,12.05
2023-03-16T13:55:15.618Z,12.93
2023-03-16T13:57:45.566Z,10.43
2023-03-16T14:00:19.035Z,10.70
2023-03-16T14:05:22.859Z,12.00
2023-03-16T14:07:52.966Z,10.98
2023-03-16T14:10:21.862Z,12.65
2023-03-16T14:13:10.909Z,10.27
2023-03-16T14:15:39.022Z,11.07
2023-03-16T14:18:22.831Z,13.90
2023-03-16T14:20:55.504Z,4.95
2023-03-16T14:23:37.307Z,11.07
2023-03-16T14:26:12.852Z,19.50
2023-03-16T14:28:40.222Z,15.85
2023-03-16T14:31:13.520Z,10.63
2023-03-16T14:33:43.932Z,19.63
2023-03-16T14:36:17.728Z,17.67
2023-03-16T14:38:49.146Z,13.35
2023-03-16T14:41:24.656Z,9.88
2023-03-16T14:43:59.765Z,11.10
2023-03-16T14:46:37.793Z,10.85
2023-03-16T14:49:20.767Z,7.80
2023-03-16T14:51:50.555Z,5.93
2023-03-16T14:54:22.022Z,7.47
2023-03-16T14:56:55.004Z,7.03
2023-03-16T14:59:22.609Z,12.50
2023-03-16T15:01:51.003Z,13.15
2023-03-16T15:04:25.335Z,10.20
2023-03-16T15:06:52.640Z,7.95
2023-03-16T15:09:38.301Z,14.23
2023-03-16T15:12:14.585Z,10.05
2023-03-16T15:15:00.135Z,11.27
2023-03-16T15:17:27.802Z,13.55
2023-03-16T15:19:55.266Z,8.10
2023-03-16T15:22:37.707Z,11.82
2023-03-16T15:25:23.185Z,7.35
2023-03-16T15:27:51.491Z,7.13
2023-03-16T15:30:28.867Z,8.98
2023-03-16T15:32:56.834Z,14.23
2023-03-16T15:35:27.914Z,12.60
2023-03-16T15:37:55.241Z,14.90
2023-03-16T15:40:29.783Z,16.65
2023-03-16T15:42:57.896Z,10.70
2023-03-16T15:45:25.781Z,7.65
2023-03-16T15:47:54.023Z,15.73
2023-03-16T15:50:24.845Z,15.35
2023-03-16T15:53:09.072Z,9.98
2023-03-16T15:55:42.107Z,10.48
2023-03-16T15:58:24.527Z,11.15
2023-03-16T16:00:55.923Z,8.93
2023-03-16T16:03:28.049Z,9.65
2023-03-16T16:05:55.849Z,7.40
2023-03-16T16:08:23.077Z,10.30
2023-03-16T16:10:51.828Z,12.68
2023-03-16T16:13:44.304Z,9.45
2023-03-16T16:16:18.150Z,9.00
2023-03-16T16:18:47.748Z,18.75
2023-03-16T16:21:18.161Z,12.32
2023-03-16T16:23:46.320Z,13.00
2023-03-16T16:26:18.983Z,4.60
2023-03-16T16:28:47.825Z,11.07
2023-03-16T16:31:15.113Z,12.05
2023-03-16T16:33:42.189Z,11.45
2023-03-16T16:36:19.296Z,8.95
2023-03-16T16:38:47.880Z,11.23
2023-03-16T16:41:28.514Z,8.68
2023-03-16T16:43:56.521Z,8.95
2023-03-16T16:46:28.847Z,10.43
2023-03-16T16:49:07.336Z,6.15
2023-03-16T16:51:34.666Z,9.30
2023-03-16T16:54:02.392Z,6.50
2023-03-16T16:56:32.659Z,6.18
2023-03-16T16:59:11.170Z,5.40
2023-03-16T17:01:39.199Z,8.43
2023-03-16T17:04:13.618Z,7.97
2023-03-16T17:06:41.615Z,9.55
2023-03-16T17:09:09.995Z,9.90
2023-03-16T17:11:37.770Z,9.73
2023-03-16T17:14:07.908Z,10.27
2023-03-16T17:16:38.146Z,12.35
2023-03-16T17:19:14.859Z,9.55
2023-03-16T17:21:42.200Z,5.05
2023-03-16T17:24:09.486Z,11.30
2023-03-16T17:26:42.974Z,8.77
2023-03-16T17:29:31.956Z,8.23
2023-03-16T17:32:08.695Z,4.78
2023-03-16T17:34:36.103Z,7.80
2023-03-16T17:37:03.054Z,6.63
2023-03-16T17:39:32.912Z,6.07
2023-03-16T17:42:02.830Z,11.38
2023-03-16T17:44:53.507Z,19.75
2023-03-16T17:47:23.242Z,9.50
2023-03-16T17:49:51.567Z,14.40
2023-03-16T17:52:23.534Z,9.63
2023-03-16T17:54:54.189Z,12.48
2023-03-16T17:57:33.740Z,6.97
2023-03-16T18:00:02.586Z,14.40
2023-03-16T18:02:47.316Z,12.50
2023-03-16T18:05:25.510Z,10.95
2023-03-16T18:07:53.931Z,11.85
2023-03-16T18:10:27.596Z,9.73
2023-03-16T18:13:09.038Z,9.95
2023-03-16T18:15:41.813Z,8.07
2023-03-16T18:18:18.161Z,13.10
2023-03-16T18:20:46.213Z,6.10
2023-03-16T18:23:33.854Z,8.38
2023-03-16T18:26:04.092Z,12.68
2023-03-16T18:28:32.283Z,7.18
2023-03-16T18:31:09.357Z,8.45
2023-03-16T18:33:39.664Z,6.40
2023-03-16T18:36:16.174Z,12.27
2023-03-16T18:38:47.085Z,7.07
2023-03-16T18:41:18.814Z,5.53
2023-03-16T18:43:47.334Z,12.93
2023-03-16T18:46:24.277Z,14.82
2023-03-16T18:48:54.093Z,9.95
2023-03-16T18:51:30.173Z,11.63
2023-03-16T18:53:57.828Z,12.73
2023-03-16T18:56:27.320Z,12.25
2023-03-16T18:58:56.313Z,8.77
2023-03-16T19:01:33.401Z,11.23
2023-03-16T19:04:02.282Z,7.90
2023-03-16T19:06:35.063Z,10.45
2023-03-16T19:09:15.011Z,7.50
2023-03-16T19:11:44.243Z,19.05
2023-03-16T19:14:20.228Z,13.18
2023-03-16T19:16:48.671Z,13.32
2023-03-16T19:19:15.938Z,15.02
2023-03-16T19:21:44.170Z,13.60
2023-03-16T19:24:30.987Z,16.73
2023-03-16T19:26:58.856Z,10.50
2023-03-16T19:29:34.542Z,10.07
2023-03-16T19:32:02.685Z,11.95
2023-03-16T19:34:30.025Z,12.82
2023-03-16T19:36:58.719Z,22.02
2023-03-16T19:39:28.063Z,12.77
2023-03-16T19:42:01.672Z,14.68
2023-03-16T19:44:29.401Z,17.85
2023-03-16T19:46:57.088Z,11.18
2023-03-16T19:49:27.397Z,16.52
2023-03-16T19:51:56.022Z,12.23
2023-03-16T19:54:27.371Z,13.65
2023-03-16T19:56:56.410Z,12.57
2023-03-16T19:59:27.115Z,12.10
2023-03-16T20:01:54.182Z,18.65
2023-03-16T20:04:24.024Z,21.95
2023-03-16T20:06:52.273Z,13.90
2023-03-16T20:09:19.978Z,14.13
2023-03-16T20:11:48.921Z,13.05
2023-03-16T20:14:31.072Z,16.88
2023-03-16T20:17:01.302Z,12.35
2023-03-16T20:19:29.217Z,19.30
2023-03-16T20:21:56.721Z,16.85
2023-03-16T20:24:29.308Z,24.02
2023-03-16T20:26:56.952Z,22.75
2023-03-16T20:29:31.406Z,11.25
2023-03-16T20:32:00.234Z,12.30
2023-03-16T20:34:31.398Z,10.30
2023-03-16T20:36:59.759Z,10.73
2023-03-16T20:39:28.477Z,11.57
2023-03-16T20:41:57.456Z,26.60
2023-03-16T20:44:25.590Z,19.83
2023-03-16T20:46:52.765Z,12.05
2023-03-16T20:49:22.904Z,18.27
2023-03-16T20:51:51.634Z,8.80
2023-03-16T20:54:19.407Z,16.55
2023-03-16T20:56:47.074Z,18.35
2023-03-16T20:59:20.515Z,19.67
2023-03-16T21:01:48.198Z,18.30
2023-03-16T21:04:21.094Z,14.75
2023-03-16T21:06:51.543Z,10.30
2023-03-16T21:09:20.222Z,19.45
2023-03-16T21:11:48.196Z,14.70
2023-03-16T21:14:22.218Z,18.52
2023-03-16T21:16:50.204Z,19.70
2023-03-16T21:19:20.897Z,14.80
2023-03-16T21:21:48.092Z,15.90
2023-03-16T21:24:16.213Z,15.23
2023-03-16T21:26:44.934Z,17.38
2023-03-16T21:29:16.549Z,16.75
2023-03-16T21:31:44.015Z,20.92
2023-03-16T21:34:30.870Z,15.35
2023-03-16T21:37:00.335Z,12.82
2023-03-16T21:39:29.714Z,20.60
2023-03-16T21:41:56.756Z,14.05
2023-03-16T21:44:23.992Z,11.80
2023-03-16T21:46:51.265Z,13.35
2023-03-16T21:49:21.096Z,10.88
2023-03-16T21:51:50.493Z,15.00
2023-03-16T21:54:19.372Z,13.60
2023-03-16T21:56:48.076Z,17.27
2023-03-16T21:59:15.788Z,17.25
2023-03-16T22:02:00.426Z,15.00
2023-03-16T22:04:28.906Z,13.13
2023-03-16T22:06:55.972Z,14.18
2023-03-16T22:09:25.115Z,11.52
2023-03-16T22:11:52.415Z,12.25
2023-03-16T22:14:19.576Z,19.65
2023-03-16T22:16:46.897Z,10.45
2023-03-16T22:19:14.835Z,15.65
2023-03-16T22:21:44.440Z,9.80
2023-03-16T22:24:18.165Z,15.38
2023-03-16T22:26:46.531Z,13.30
2023-03-16T22:29:25.504Z,7.78
2023-03-16T22:32:07.062Z,8.60
2023-03-16T22:34:49.941Z,9.68
2023-03-16T22:37:24.338Z,13.00
2023-03-16T22:39:51.941Z,13.38
2023-03-16T22:42:39.527Z,13.13
2023-03-16T22:45:27.758Z,15.00
2023-03-16T22:47:56.704Z,10.25
2023-03-16T22:50:26.808Z,13.63
2023-03-16T22:52:58.125Z,10.38
2023-03-16T22:55:30.638Z,8.50
2023-03-16T22:58:27.368Z,13.73
2023-03-16T23:00:55.329Z,12.98
2023-03-16T23:03:23.961Z,16.98
2023-03-16T23:05:53.168Z,10.52
2023-03-16T23:08:23.531Z,11.48
2023-03-16T23:10:54.587Z,11.75
2023-03-16T23:13:25.336Z,10.82
2023-03-16T23:15:53.659Z,13.55
2023-03-16T23:18:24.272Z,20.23
2023-03-16T23:20:52.800Z,17.80
2023-03-16T23:23:20.397Z,26.67
2023-03-16T23:25:48.377Z,27.23
2023-03-16T23:28:23.232Z,18.65
2023-03-16T23:30:50.794Z,15.35
2023-03-16T23:33:17.991Z,14.88
2023-03-16T23:35:46.904Z,20.55
2023-03-16T23:38:14.811Z,17.08
2023-03-16T23:40:41.953Z,17.88
2023-03-16T23:43:09.356Z,23.77
2023-03-16T23:45:46.171Z,11.13
2023-03-16T23:48:19.574Z,15.88
2023-03-16T23:50:50.183Z,14.70
2023-03-16T23:53:19.143Z,22.25
2023-03-16T23:55:48.849Z,20.55
2023-03-16T23:58:16.763Z,15.70
